»·PEaware :: N106AZ KAVQ-KBXK

N106AZ :: KAVQ-KBXK

FLIGHT INFORMATION

Flight Status: Arrived
Operator: Privately registered:
United States
More flights under this callsign
Pilot: Spencer F. (32151)
Aircraft: CIRRUS SR-22 TURBO
(S22T)
More flights by this aircraft type
Origin: KAVQ Marana Northwest Regl
United States
Destination: KBXK Buckeye Mun
United States
More flights between these airports :: More routes between these airports
Route: KAVQ DCT KBXK
File this flight plan on PilotEdge
Remarks:
Altitude:
(Current/Filed)
4,500ft
Speed:
(Current/Filed)
150kts
Departed: 29-Oct-20 01:48 PM
Arrived: 29-Oct-20 02:23 PM
Distance/Time
Traveled:
96nm/0:35
Distance/Time
To Go:
Arrived

Flight Plot

Page will automatically refresh every two minutes.

Flight plan parsing failed; only flown route is shown


Map Options




Map Legend


Flown Route
Filed Route
Departure Airport
Arrival Airport
Navaid (VOR, NDB)
Fix

Horizontal Profiles

Position Reports

Time Latitude Longitude Heading Altitude Ground
Speed
29-Oct-20 13:17 32.406538 -111.210590 327 2032ft 0kts
29-Oct-20 13:18 32.406538 -111.210590 327 2032ft 0kts
29-Oct-20 13:19 32.406538 -111.210590 327 2032ft 0kts
29-Oct-20 13:20 32.406538 -111.210590 327 2032ft 0kts
29-Oct-20 13:21 32.406538 -111.210590 327 2032ft 0kts
29-Oct-20 13:22 32.406538 -111.210590 327 2032ft 0kts
29-Oct-20 13:23 32.406538 -111.210590 327 2032ft 0kts
29-Oct-20 13:24 32.406538 -111.210590 327 2032ft 0kts
29-Oct-20 13:25 32.406538 -111.210590 327 2032ft 0kts
29-Oct-20 13:26 32.406538 -111.210590 327 2032ft 0kts
29-Oct-20 13:27 32.406538 -111.210590 327 2032ft 0kts
29-Oct-20 13:28 32.406538 -111.210590 327 2032ft 0kts
29-Oct-20 13:29 32.406538 -111.210590 327 2032ft 0kts
29-Oct-20 13:30 32.406538 -111.210590 327 2032ft 0kts
29-Oct-20 13:31 32.406538 -111.210590 327 2032ft 0kts
29-Oct-20 13:32 32.406538 -111.210590 327 2032ft 0kts
29-Oct-20 13:33 32.406538 -111.210590 327 2032ft 0kts
29-Oct-20 13:34 32.406538 -111.210590 327 2032ft 0kts
29-Oct-20 13:35 32.406538 -111.210590 327 2032ft 0kts
29-Oct-20 13:36 32.406538 -111.210590 327 2032ft 0kts
29-Oct-20 13:37 32.405018 -111.209801 168 2034ft 13kts
29-Oct-20 13:38 32.404731 -111.209920 222 2034ft 0kts
29-Oct-20 13:39 32.404731 -111.209920 222 2034ft 0kts
29-Oct-20 13:40 32.404731 -111.209919 222 2034ft 0kts
29-Oct-20 13:41 32.404731 -111.209919 222 2034ft 0kts
29-Oct-20 13:42 32.404731 -111.209919 222 2034ft 0kts
29-Oct-20 13:43 32.404745 -111.211284 315 2034ft 0kts
29-Oct-20 13:44 32.404745 -111.211284 315 2034ft 0kts
29-Oct-20 13:45 32.404745 -111.211284 315 2034ft 0kts
29-Oct-20 13:46 32.405115 -111.211670 321 2033ft 31kts
29-Oct-20 13:47 32.426801 -111.238012 312 2644ft 134kts
29-Oct-20 13:49 32.431759 -111.279695 271 3879ft 141kts
29-Oct-20 13:50 32.440385 -111.329678 305 4194ft 174kts
29-Oct-20 13:51 32.469733 -111.377363 305 4183ft 181kts
29-Oct-20 13:52 32.496541 -111.428002 301 4177ft 182kts
29-Oct-20 13:53 32.521890 -111.480102 301 4171ft 182kts
29-Oct-20 13:54 32.546064 -111.530853 300 4445ft 178kts
29-Oct-20 13:55 32.570525 -111.582589 300 4460ft 181kts
29-Oct-20 13:56 32.595113 -111.635062 300 4455ft 182kts
29-Oct-20 13:57 32.619533 -111.687744 300 4448ft 182kts
29-Oct-20 13:58 32.644065 -111.740839 300 4448ft 184kts
29-Oct-20 13:59 32.668515 -111.794040 300 4437ft 183kts
29-Oct-20 14:00 32.692799 -111.847056 301 4421ft 182kts
29-Oct-20 14:01 32.717059 -111.900202 300 4434ft 183kts
29-Oct-20 14:02 32.741334 -111.953512 301 4428ft 184kts
29-Oct-20 14:03 32.765754 -112.007058 300 4425ft 185kts
29-Oct-20 14:04 32.790267 -112.060902 301 4418ft 185kts
29-Oct-20 14:05 32.814858 -112.115053 301 4413ft 186kts
29-Oct-20 14:05 32.835179 -112.160202 300 4411ft 186kts
29-Oct-20 14:07 32.863765 -112.223397 301 4405ft 185kts
29-Oct-20 14:07 32.884259 -112.268260 301 4406ft 185kts
29-Oct-20 14:09 32.913073 -112.331237 301 4418ft 187kts
29-Oct-20 14:09 32.933828 -112.376420 301 4394ft 185kts
29-Oct-20 14:10 32.958603 -112.430052 301 4404ft 186kts
29-Oct-20 14:11 32.990275 -112.476864 340 4429ft 180kts
29-Oct-20 14:12 33.035358 -112.501965 338 4507ft 180kts
29-Oct-20 14:13 33.080917 -112.528731 337 4495ft 182kts
29-Oct-20 14:14 33.126058 -112.556475 335 4491ft 181kts
29-Oct-20 14:15 33.170812 -112.584322 336 4503ft 182kts
29-Oct-20 14:16 33.215964 -112.612075 336 4498ft 182kts
29-Oct-20 14:17 33.260905 -112.639475 336 4501ft 182kts
29-Oct-20 14:18 33.306250 -112.666847 336 4500ft 181kts
29-Oct-20 14:19 33.351712 -112.686261 358 3456ft 162kts
29-Oct-20 14:20 33.389737 -112.686992 2 2267ft 119kts
29-Oct-20 14:21 33.413964 -112.686634 3 1041ft 74kts
29-Oct-20 14:22 33.419104 -112.685067 2 1009ft 34kts
29-Oct-20 14:23 33.421270 -112.683778 42 1014ft 0kts
29-Oct-20 14:24 33.421270 -112.683778 42 1014ft 0kts
29-Oct-20 14:25 33.421270 -112.683778 42 1014ft 0kts
29-Oct-20 14:26 33.421270 -112.683778 42 1014ft 0kts
29-Oct-20 14:27 33.421270 -112.683778 42 1014ft 0kts
29-Oct-20 14:28 33.421270 -112.683778 42 1014ft 0kts
29-Oct-20 14:29 33.421270 -112.683778 42 1014ft 0kts
29-Oct-20 14:30 33.421270 -112.683778 42 1014ft 0kts
29-Oct-20 14:31 33.421270 -112.683778 42 1014ft 0kts

Navigation Log

Ident Type
Flight plan parsing failed, navigation log unavailable